createdAt,value
2018-01-23T00:01:19.693Z,6.40
2018-01-23T00:03:47.971Z,6.38
2018-01-23T00:06:16.255Z,6.27
2018-01-23T00:08:44.507Z,6.38
2018-01-23T00:11:12.754Z,6.41
2018-01-23T00:13:41.027Z,6.34
2018-01-23T00:16:09.280Z,6.33
2018-01-23T00:18:37.555Z,6.35
2018-01-23T00:21:05.856Z,6.41
2018-01-23T00:23:34.147Z,6.39
2018-01-23T00:26:02.412Z,6.28
2018-01-23T00:28:30.684Z,6.35
2018-01-23T00:30:58.935Z,6.23
2018-01-23T00:33:27.978Z,6.32
2018-01-23T00:35:56.255Z,6.31
2018-01-23T00:38:24.519Z,6.22
2018-01-23T00:40:53.531Z,6.20
2018-01-23T00:43:22.607Z,6.23
2018-01-23T00:45:50.902Z,6.32
2018-01-23T00:48:19.182Z,6.23
2018-01-23T00:50:47.480Z,6.29
2018-01-23T00:53:15.738Z,6.30
2018-01-23T00:55:43.997Z,6.21
2018-01-23T00:58:12.272Z,6.20
2018-01-23T01:00:41.303Z,6.15
2018-01-23T01:03:09.571Z,6.15
2018-01-23T01:05:39.396Z,6.15
2018-01-23T01:08:07.694Z,6.16
2018-01-23T01:10:36.772Z,6.27
2018-01-23T01:13:05.069Z,6.23
2018-01-23T01:15:34.079Z,6.19
2018-01-23T01:18:03.112Z,6.18
2018-01-23T01:20:31.384Z,6.21
2018-01-23T01:23:00.415Z,6.18
2018-01-23T01:25:28.676Z,6.11
2018-01-23T01:27:57.687Z,6.19
2018-01-23T01:30:26.705Z,6.13
2018-01-23T01:32:54.981Z,6.15
2018-01-23T01:35:23.992Z,6.13
2018-01-23T01:37:53.118Z,6.24
2018-01-23T01:40:21.376Z,6.19
2018-01-23T01:42:50.479Z,6.22
2018-01-23T01:45:19.633Z,6.27
2018-01-23T01:47:47.990Z,6.28
2018-01-23T01:50:17.044Z,6.34
2018-01-23T01:52:45.299Z,6.25
2018-01-23T01:55:14.281Z,6.26
2018-01-23T01:57:42.535Z,6.28
2018-01-23T02:00:10.791Z,6.19
2018-01-23T02:02:39.807Z,6.27
2018-01-23T02:05:08.088Z,6.22
2018-01-23T02:07:36.359Z,6.24
2018-01-23T02:10:05.435Z,6.24
2018-01-23T02:12:33.679Z,6.24
2018-01-23T02:15:01.998Z,6.22
2018-01-23T02:17:31.025Z,6.26
2018-01-23T02:19:59.283Z,6.18
2018-01-23T02:22:27.531Z,6.19
2018-01-23T02:24:56.600Z,6.09
2018-01-23T02:27:25.619Z,6.13
2018-01-23T02:29:53.879Z,6.01
2018-01-23T02:32:22.168Z,6.09
2018-01-23T02:34:50.478Z,6.18
2018-01-23T02:37:18.791Z,6.14
2018-01-23T02:39:47.096Z,6.05
2018-01-23T02:42:15.355Z,6.13
2018-01-23T02:44:43.623Z,6.04
2018-01-23T02:47:11.874Z,6.10
2018-01-23T02:49:40.154Z,6.05
2018-01-23T02:52:09.160Z,6.09
2018-01-23T02:54:38.224Z,6.21
2018-01-23T02:57:06.492Z,6.15
2018-01-23T02:59:34.766Z,6.06
2018-01-23T03:02:03.012Z,6.01
2018-01-23T03:04:31.278Z,5.97
2018-01-23T03:06:59.544Z,6.09
2018-01-23T03:09:27.782Z,6.03
2018-01-23T03:11:56.041Z,6.04
2018-01-23T03:14:24.333Z,6.10
2018-01-23T03:16:52.612Z,6.05
2018-01-23T03:19:21.661Z,6.05
2018-01-23T03:21:49.938Z,6.07
2018-01-23T03:24:18.257Z,6.01
2018-01-23T03:26:46.513Z,6.02
2018-01-23T03:29:15.547Z,6.03
2018-01-23T03:31:44.567Z,6.01
2018-01-23T03:34:12.818Z,6.07
2018-01-23T03:36:41.093Z,6.06
2018-01-23T03:39:09.339Z,6.07
2018-01-23T03:41:37.647Z,6.03
2018-01-23T03:44:06.662Z,5.95
2018-01-23T03:46:34.926Z,5.88
2018-01-23T03:49:03.167Z,5.97
2018-01-23T03:51:31.432Z,5.99
2018-01-23T03:53:59.699Z,6.00
2018-01-23T03:56:27.963Z,5.96
2018-01-23T03:58:56.972Z,6.00
2018-01-23T04:01:25.992Z,5.85
2018-01-23T04:03:54.232Z,5.96
2018-01-23T04:06:22.514Z,5.91
2018-01-23T04:08:50.795Z,5.93
2018-01-23T04:11:19.056Z,5.98
2018-01-23T04:13:48.170Z,5.87
2018-01-23T04:16:17.619Z,5.88
2018-01-23T04:18:46.681Z,5.81
2018-01-23T04:21:14.943Z,5.88
2018-01-23T04:23:43.968Z,5.86
2018-01-23T04:26:12.254Z,5.86
2018-01-23T04:28:40.491Z,5.83
2018-01-23T04:31:08.751Z,5.82
2018-01-23T04:33:37.021Z,5.80
2018-01-23T04:36:05.347Z,5.79
2018-01-23T04:38:33.639Z,5.76
2018-01-23T04:41:01.916Z,5.82
2018-01-23T04:43:30.160Z,5.72
2018-01-23T04:45:59.187Z,5.83
2018-01-23T04:48:28.274Z,5.78
2018-01-23T04:50:57.647Z,5.81
2018-01-23T04:53:25.916Z,5.77
2018-01-23T04:55:54.170Z,5.83
2018-01-23T04:58:23.212Z,5.82
2018-01-23T05:00:51.510Z,5.79
2018-01-23T05:03:19.847Z,5.77
2018-01-23T05:05:48.213Z,5.74
2018-01-23T05:08:16.601Z,5.72
2018-01-23T05:10:44.860Z,5.83
2018-01-23T05:13:13.231Z,5.74
2018-01-23T05:15:41.639Z,5.74
2018-01-23T05:18:10.729Z,5.74
2018-01-23T05:20:40.184Z,5.81
2018-01-23T05:23:08.533Z,5.89
2018-01-23T05:25:37.607Z,5.83
2018-01-23T05:28:05.930Z,5.79
2018-01-23T05:30:34.935Z,5.76
2018-01-23T05:33:04.279Z,5.69
2018-01-23T05:35:32.722Z,5.69
2018-01-23T05:38:01.193Z,5.74
2018-01-23T05:40:29.462Z,5.72
2018-01-23T05:42:57.874Z,5.73
2018-01-23T05:45:26.149Z,5.75
2018-01-23T05:47:54.406Z,5.75
2018-01-23T05:50:22.809Z,5.68
2018-01-23T05:52:51.333Z,5.73
2018-01-23T05:55:19.651Z,5.74
2018-01-23T05:57:48.906Z,5.75
2018-01-23T06:00:17.660Z,5.68
2018-01-23T06:02:46.737Z,5.85
2018-01-23T06:05:15.438Z,5.79
2018-01-23T06:07:43.954Z,5.76
2018-01-23T06:10:12.391Z,5.84
2018-01-23T06:12:42.430Z,5.78
2018-01-23T06:15:10.718Z,5.73
2018-01-23T06:17:39.736Z,5.67
2018-01-23T06:20:08.378Z,5.50
2018-01-23T06:22:36.980Z,5.48
2018-01-23T06:25:06.091Z,5.35
2018-01-23T06:27:34.398Z,5.34
2018-01-23T06:30:03.629Z,5.28
2018-01-23T06:32:32.021Z,5.29
2018-01-23T06:35:00.416Z,5.38
2018-01-23T06:37:28.660Z,5.28
2018-01-23T06:39:57.615Z,5.23
2018-01-23T06:42:25.884Z,5.18
2018-01-23T06:44:55.037Z,5.20
2018-01-23T06:47:23.273Z,5.22
2018-01-23T06:49:52.321Z,5.22
2018-01-23T06:52:20.629Z,5.38
2018-01-23T06:54:50.136Z,5.44
2018-01-23T06:57:19.310Z,5.37
2018-01-23T06:59:47.793Z,5.40
2018-01-23T07:02:17.016Z,5.30
2018-01-23T07:04:45.587Z,5.36
2018-01-23T07:07:14.535Z,5.31
2018-01-23T07:09:43.575Z,5.26
2018-01-23T07:12:12.446Z,5.20
2018-01-23T07:14:41.510Z,5.13
2018-01-23T07:17:09.977Z,5.09
2018-01-23T07:19:38.240Z,5.19
2018-01-23T07:22:06.525Z,5.09
2018-01-23T07:24:35.056Z,5.09
2018-01-23T07:27:03.944Z,5.30
2018-01-23T07:29:32.612Z,5.18
2018-01-23T07:32:00.872Z,5.15
2018-01-23T07:34:29.531Z,5.08
2018-01-23T07:36:57.819Z,5.09
2018-01-23T07:39:26.678Z,5.11
2018-01-23T07:41:56.735Z,5.14
2018-01-23T07:44:25.235Z,5.18
2018-01-23T07:46:53.479Z,5.16
2018-01-23T07:49:22.530Z,5.21
2018-01-23T07:51:51.246Z,5.30
2018-01-23T07:54:19.740Z,5.32
2018-01-23T07:56:48.193Z,5.39
2018-01-23T07:59:16.505Z,5.44
2018-01-23T08:01:45.212Z,5.44
2018-01-23T08:04:14.280Z,5.53
2018-01-23T08:06:43.597Z,5.53
2018-01-23T08:09:11.853Z,5.54
2018-01-23T08:11:40.112Z,5.53
2018-01-23T08:14:08.359Z,5.61
2018-01-23T08:16:37.403Z,5.64
2018-01-23T08:19:05.732Z,5.69
2018-01-23T08:21:34.185Z,5.76
2018-01-23T08:24:03.063Z,5.84
2018-01-23T08:26:32.499Z,5.87
2018-01-23T08:29:00.833Z,5.93
2018-01-23T08:31:29.188Z,5.92
2018-01-23T08:33:57.441Z,6.13
2018-01-23T08:36:26.517Z,6.08
2018-01-23T08:38:55.112Z,6.03
2018-01-23T08:41:23.607Z,6.14
2018-01-23T08:43:52.056Z,6.26
2018-01-23T08:46:21.113Z,6.28
2018-01-23T08:48:49.859Z,6.33
2018-01-23T08:51:18.361Z,6.42
2018-01-23T08:53:47.823Z,6.29
2018-01-23T08:56:16.548Z,6.47
2018-01-23T08:58:45.092Z,6.26
2018-01-23T09:01:13.372Z,6.34
2018-01-23T09:03:41.851Z,6.40
2018-01-23T09:06:10.938Z,6.37
2018-01-23T09:08:40.572Z,6.35
2018-01-23T09:11:10.103Z,6.51
2018-01-23T09:13:38.535Z,6.53
2018-01-23T09:16:06.917Z,6.58
2018-01-23T09:18:35.352Z,6.56
2018-01-23T09:21:03.899Z,6.48
2018-01-23T09:23:32.159Z,6.56
2018-01-23T09:26:00.413Z,6.65
2018-01-23T09:28:29.795Z,6.82
2018-01-23T09:30:58.863Z,6.83
2018-01-23T09:33:27.127Z,6.73
2018-01-23T09:35:56.149Z,6.72
2018-01-23T09:38:25.179Z,6.81
2018-01-23T09:40:53.423Z,6.73
2018-01-23T09:43:22.471Z,6.83
2018-01-23T09:45:50.735Z,6.84
2018-01-23T09:48:19.167Z,6.97
2018-01-23T09:50:47.505Z,6.99
2018-01-23T09:53:16.538Z,7.23
2018-01-23T09:55:44.789Z,7.13
2018-01-23T09:58:13.047Z,7.29
2018-01-23T10:00:41.295Z,7.32
2018-01-23T10:03:09.579Z,7.34
2018-01-23T10:05:38.583Z,7.35
2018-01-23T10:08:07.612Z,7.32
2018-01-23T10:10:35.851Z,7.32
2018-01-23T10:13:04.153Z,7.54
2018-01-23T10:15:32.412Z,7.55
2018-01-23T10:18:00.677Z,7.66
2018-01-23T10:20:28.916Z,7.58
2018-01-23T10:22:57.184Z,7.61
2018-01-23T10:25:25.432Z,7.69
2018-01-23T10:27:53.970Z,7.76
2018-01-23T10:30:22.233Z,7.69
2018-01-23T10:32:50.529Z,7.74
2018-01-23T10:35:18.879Z,7.85
2018-01-23T10:37:47.116Z,7.82
2018-01-23T10:40:15.362Z,7.65
2018-01-23T10:42:43.609Z,7.78
2018-01-23T10:45:11.858Z,7.84
2018-01-23T10:47:40.112Z,7.86
2018-01-23T10:50:09.203Z,7.70
2018-01-23T10:52:37.492Z,7.70
2018-01-23T10:55:05.741Z,7.76
2018-01-23T10:57:34.007Z,7.89
2018-01-23T11:00:02.252Z,7.93
2018-01-23T11:02:30.499Z,7.96
2018-01-23T11:04:58.801Z,8.00
2018-01-23T11:07:27.047Z,8.16
2018-01-23T11:09:56.681Z,8.12
2018-01-23T11:12:24.926Z,8.17
2018-01-23T11:14:53.235Z,8.15
2018-01-23T11:17:21.581Z,8.43
2018-01-23T11:19:50.029Z,8.65
2018-01-23T11:22:19.052Z,8.46
2018-01-23T11:24:47.428Z,8.47
2018-01-23T11:27:15.687Z,8.59
2018-01-23T11:29:44.020Z,8.98
2018-01-23T11:32:13.031Z,8.98
2018-01-23T11:34:41.304Z,9.17
2018-01-23T11:37:09.551Z,9.16
2018-01-23T11:39:37.819Z,9.06
2018-01-23T11:42:06.090Z,9.32
2018-01-23T11:44:34.367Z,9.20
2018-01-23T11:47:03.958Z,9.22
2018-01-23T11:49:32.221Z,9.13
2018-01-23T11:52:00.463Z,9.14
2018-01-23T11:54:28.723Z,8.89
2018-01-23T11:56:56.971Z,9.25
2018-01-23T11:59:25.242Z,9.32
2018-01-23T12:01:53.490Z,9.40
2018-01-23T12:04:21.781Z,9.51
2018-01-23T12:06:50.070Z,9.18
2018-01-23T12:09:18.392Z,9.21
2018-01-23T12:11:46.684Z,9.24
2018-01-23T12:14:14.956Z,9.27
2018-01-23T12:16:43.228Z,9.10
2018-01-23T12:19:11.495Z,8.98
2018-01-23T12:21:39.738Z,9.05
2018-01-23T12:24:08.025Z,9.16
2018-01-23T12:26:36.343Z,9.43
2018-01-23T12:29:04.629Z,9.78
2018-01-23T12:31:32.879Z,9.43
2018-01-23T12:34:01.918Z,9.42
2018-01-23T12:36:30.171Z,9.51
2018-01-23T12:38:59.179Z,9.49
2018-01-23T12:41:28.200Z,9.58
2018-01-23T12:43:56.454Z,9.21
2018-01-23T12:46:24.725Z,9.40
2018-01-23T12:48:53.005Z,9.31
2018-01-23T12:51:22.056Z,9.10
2018-01-23T12:53:50.336Z,9.32
2018-01-23T12:56:18.756Z,9.41
2018-01-23T12:58:47.789Z,9.26
2018-01-23T13:01:16.064Z,9.36
2018-01-23T13:03:44.329Z,9.39
2018-01-23T13:06:13.380Z,9.26
2018-01-23T13:08:41.654Z,9.19
2018-01-23T13:11:09.968Z,9.17
2018-01-23T13:13:38.217Z,9.08
2018-01-23T13:16:06.501Z,9.03
2018-01-23T13:18:35.528Z,8.91
2018-01-23T13:21:03.859Z,9.07
2018-01-23T13:23:32.111Z,8.86
2018-01-23T13:26:00.397Z,8.68
2018-01-23T13:28:28.670Z,8.66
2018-01-23T13:30:57.708Z,8.60
2018-01-23T13:33:25.984Z,8.65
2018-01-23T13:35:54.283Z,8.65
2018-01-23T13:38:22.660Z,8.67
2018-01-23T13:40:50.958Z,8.50
2018-01-23T13:43:19.243Z,8.62
2018-01-23T13:45:47.549Z,8.66
2018-01-23T13:48:15.829Z,8.72
2018-01-23T13:50:44.105Z,8.61
2018-01-23T13:53:12.372Z,8.80
2018-01-23T13:55:40.635Z,8.81
2018-01-23T13:58:08.961Z,8.98
2018-01-23T14:00:37.229Z,8.85
2018-01-23T14:03:05.506Z,8.96
2018-01-23T14:05:33.780Z,9.04
2018-01-23T14:08:02.055Z,9.02
2018-01-23T14:10:30.347Z,8.79
2018-01-23T14:12:58.608Z,8.82
2018-01-23T14:15:26.863Z,8.76
2018-01-23T14:17:55.915Z,8.75
2018-01-23T14:20:24.216Z,8.57
2018-01-23T14:22:52.523Z,8.56
2018-01-23T14:25:22.323Z,8.53
2018-01-23T14:27:50.640Z,8.55
2018-01-23T14:30:18.917Z,8.52
2018-01-23T14:32:47.219Z,8.50
2018-01-23T14:35:15.493Z,8.55
2018-01-23T14:37:43.763Z,8.68
2018-01-23T14:40:12.020Z,8.84
2018-01-23T14:42:40.351Z,8.74
2018-01-23T14:45:08.675Z,8.69
2018-01-23T14:47:36.967Z,8.56
2018-01-23T14:50:05.262Z,8.63
2018-01-23T14:52:33.543Z,8.65
2018-01-23T14:55:01.850Z,8.65
2018-01-23T14:57:30.911Z,8.63
2018-01-23T14:59:59.185Z,8.57
2018-01-23T15:02:27.472Z,8.63
2018-01-23T15:04:55.740Z,8.50
2018-01-23T15:07:24.805Z,8.43
2018-01-23T15:09:53.100Z,8.44
2018-01-23T15:12:21.413Z,8.27
2018-01-23T15:14:49.722Z,8.30
2018-01-23T15:17:18.001Z,8.26
2018-01-23T15:19:46.293Z,8.19
2018-01-23T15:22:14.612Z,8.15
2018-01-23T15:24:42.947Z,8.05
2018-01-23T15:27:11.204Z,8.00
2018-01-23T15:29:39.475Z,8.04
2018-01-23T15:32:07.803Z,8.03
2018-01-23T15:34:36.111Z,7.96
2018-01-23T15:37:04.385Z,7.85
2018-01-23T15:39:32.707Z,7.94
2018-01-23T15:42:01.839Z,7.85
2018-01-23T15:44:30.871Z,7.82
2018-01-23T15:46:59.945Z,7.77
2018-01-23T15:49:28.232Z,7.82
2018-01-23T15:51:56.506Z,7.73
2018-01-23T15:54:25.612Z,7.74
2018-01-23T15:56:54.694Z,7.69
2018-01-23T15:59:22.995Z,7.64
2018-01-23T16:01:51.330Z,7.63
2018-01-23T16:04:19.666Z,7.59
2018-01-23T16:06:48.030Z,7.61
2018-01-23T16:09:16.406Z,7.62
2018-01-23T16:11:44.706Z,7.64
2018-01-23T16:14:13.809Z,7.64
2018-01-23T16:16:42.093Z,7.65
2018-01-23T16:19:10.424Z,7.61
2018-01-23T16:21:38.705Z,7.57
2018-01-23T16:24:06.994Z,7.56
2018-01-23T16:26:35.305Z,7.58
2018-01-23T16:29:03.616Z,7.66
2018-01-23T16:31:32.745Z,7.56
2018-01-23T16:34:01.048Z,7.60
2018-01-23T16:36:29.278Z,7.55
2018-01-23T16:38:57.567Z,7.52
2018-01-23T16:41:25.862Z,7.54
2018-01-23T16:43:54.312Z,7.50
2018-01-23T16:46:22.576Z,7.55
2018-01-23T16:48:50.919Z,7.52
2018-01-23T16:51:19.276Z,7.46
2018-01-23T16:53:48.381Z,7.53
2018-01-23T16:56:16.669Z,7.48
2018-01-23T16:58:44.963Z,7.43
2018-01-23T17:01:13.256Z,7.40
2018-01-23T17:03:41.513Z,7.41
2018-01-23T17:06:10.580Z,7.48
2018-01-23T17:08:38.860Z,7.49
2018-01-23T17:11:07.147Z,7.41
2018-01-23T17:13:35.422Z,7.41
2018-01-23T17:16:03.703Z,7.39
2018-01-23T17:18:31.979Z,7.41
2018-01-23T17:21:00.321Z,7.37
2018-01-23T17:23:28.631Z,7.43
2018-01-23T17:25:57.701Z,7.54
2018-01-23T17:28:25.968Z,7.41
2018-01-23T17:30:54.353Z,7.30
2018-01-23T17:33:22.663Z,7.48
2018-01-23T17:35:50.970Z,7.34
2018-01-23T17:38:19.354Z,7.32
2018-01-23T17:40:47.734Z,7.22
2018-01-23T17:43:16.052Z,7.12
2018-01-23T17:45:45.846Z,7.12
2018-01-23T17:48:14.180Z,7.05
2018-01-23T17:50:42.516Z,6.86
2018-01-23T17:53:10.797Z,6.93
2018-01-23T17:55:39.304Z,6.83
2018-01-23T17:58:07.615Z,6.69
2018-01-23T18:00:35.910Z,6.59
2018-01-23T18:03:04.199Z,6.62
2018-01-23T18:05:32.515Z,6.40
2018-01-23T18:08:00.784Z,6.27
2018-01-23T18:10:29.101Z,6.18
2018-01-23T18:12:58.144Z,6.28
2018-01-23T18:15:26.457Z,6.18
2018-01-23T18:17:54.766Z,6.19
2018-01-23T18:20:23.124Z,6.15
2018-01-23T18:22:51.401Z,5.98
2018-01-23T18:25:19.696Z,5.77
2018-01-23T18:27:48.042Z,5.81
2018-01-23T18:30:17.286Z,5.58
2018-01-23T18:32:45.566Z,5.59
2018-01-23T18:35:14.668Z,5.59
2018-01-23T18:37:43.740Z,5.54
2018-01-23T18:40:12.066Z,5.42
2018-01-23T18:42:41.119Z,5.39
2018-01-23T18:45:09.390Z,5.31
2018-01-23T18:47:37.736Z,5.18
2018-01-23T18:50:05.987Z,5.07
2018-01-23T18:52:34.279Z,5.07
2018-01-23T18:55:02.696Z,4.99
2018-01-23T18:57:31.055Z,4.96
2018-01-23T18:59:59.317Z,4.82
2018-01-23T19:02:27.620Z,4.89
2018-01-23T19:04:55.903Z,4.90
2018-01-23T19:07:24.265Z,4.80
2018-01-23T19:09:52.663Z,4.81
2018-01-23T19:12:21.758Z,4.84
2018-01-23T19:17:24.624Z,4.64
2018-01-23T19:19:52.954Z,4.69
2018-01-23T19:22:21.257Z,4.71
2018-01-23T19:24:49.626Z,4.73
2018-01-23T19:27:17.995Z,4.81
2018-01-23T19:29:46.326Z,4.79
2018-01-23T19:32:15.432Z,4.86
2018-01-23T19:34:43.703Z,4.84
2018-01-23T19:37:12.031Z,4.95
2018-01-23T19:39:41.143Z,5.01
2018-01-23T19:42:10.270Z,4.97
2018-01-23T19:44:39.526Z,4.97
2018-01-23T19:47:07.783Z,5.11
2018-01-23T19:49:36.084Z,5.14
2018-01-23T19:52:04.404Z,5.10
2018-01-23T19:54:32.664Z,5.11
2018-01-23T19:57:00.967Z,5.08
2018-01-23T19:59:29.289Z,5.13
2018-01-23T20:01:57.550Z,5.30
2018-01-23T20:04:25.857Z,5.46
2018-01-23T20:06:54.153Z,5.49
2018-01-23T20:09:22.445Z,5.40
2018-01-23T20:11:50.759Z,5.43
2018-01-23T20:14:20.013Z,5.45
2018-01-23T20:16:48.351Z,5.52
2018-01-23T20:19:17.499Z,5.65
2018-01-23T20:21:45.760Z,5.64
2018-01-23T20:24:14.102Z,5.58
2018-01-23T20:26:42.416Z,5.66
2018-01-23T20:29:10.738Z,5.58
2018-01-23T20:31:39.773Z,5.55
2018-01-23T20:34:08.108Z,5.59
2018-01-23T20:36:36.418Z,5.67
2018-01-23T20:39:05.866Z,5.66
2018-01-23T20:41:34.167Z,5.59
2018-01-23T20:44:02.518Z,5.55
2018-01-23T20:46:31.549Z,5.64
2018-01-23T20:48:59.879Z,5.73
2018-01-23T20:51:28.119Z,5.69
2018-01-23T20:53:56.441Z,5.79
2018-01-23T20:56:24.718Z,5.76
2018-01-23T20:58:53.028Z,5.93
2018-01-23T21:01:21.353Z,5.75
2018-01-23T21:03:50.451Z,5.73
2018-01-23T21:06:19.546Z,5.68
2018-01-23T21:08:47.841Z,5.62
2018-01-23T21:11:16.091Z,5.67
2018-01-23T21:13:44.356Z,5.68
2018-01-23T21:16:12.649Z,5.70
2018-01-23T21:18:40.901Z,5.74
2018-01-23T21:21:09.156Z,5.77
2018-01-23T21:23:37.463Z,5.89
2018-01-23T21:26:05.750Z,5.97
2018-01-23T21:28:34.029Z,5.98
2018-01-23T21:31:02.292Z,5.97
2018-01-23T21:33:30.535Z,5.96
2018-01-23T21:35:58.860Z,6.21
2018-01-23T21:38:27.107Z,6.25
2018-01-23T21:40:55.368Z,6.19
2018-01-23T21:43:24.755Z,6.14
2018-01-23T21:45:53.023Z,6.17
2018-01-23T21:48:22.098Z,6.29
2018-01-23T21:50:50.366Z,6.48
2018-01-23T21:53:18.629Z,6.37
2018-01-23T21:55:46.955Z,6.44
2018-01-23T21:58:15.206Z,6.37
2018-01-23T22:00:43.529Z,6.37
2018-01-23T22:03:12.592Z,6.33
2018-01-23T22:05:41.611Z,6.45
2018-01-23T22:08:10.621Z,6.50
2018-01-23T22:10:38.887Z,6.42
2018-01-23T22:13:07.952Z,6.49
2018-01-23T22:15:36.270Z,6.49
2018-01-23T22:18:04.525Z,6.51
2018-01-23T22:20:32.787Z,6.52
2018-01-23T22:23:01.085Z,6.51
2018-01-23T22:25:29.336Z,6.49
2018-01-23T22:27:58.394Z,6.53
2018-01-23T22:30:26.637Z,6.49
2018-01-23T22:32:55.662Z,6.48
2018-01-23T22:35:23.955Z,6.64
2018-01-23T22:37:52.186Z,6.57
2018-01-23T22:40:20.494Z,6.53
2018-01-23T22:42:49.230Z,6.58
2018-01-23T22:45:17.586Z,6.53
2018-01-23T22:47:45.907Z,6.71
2018-01-23T22:50:14.186Z,6.75
2018-01-23T22:52:43.246Z,6.64
2018-01-23T22:55:11.504Z,6.66
2018-01-23T22:57:39.751Z,6.64
2018-01-23T23:00:08.012Z,6.67
2018-01-23T23:02:36.382Z,6.68
2018-01-23T23:05:04.618Z,6.75
2018-01-23T23:07:32.871Z,6.71
2018-01-23T23:10:01.110Z,6.71
2018-01-23T23:12:30.179Z,6.75
2018-01-23T23:14:58.415Z,6.63
2018-01-23T23:17:27.451Z,6.73
2018-01-23T23:19:55.691Z,6.65
2018-01-23T23:22:23.944Z,6.69
2018-01-23T23:24:52.231Z,6.62
2018-01-23T23:27:21.338Z,6.66
2018-01-23T23:29:50.381Z,6.65
2018-01-23T23:32:18.675Z,6.60
2018-01-23T23:34:46.977Z,6.64
2018-01-23T23:37:15.996Z,6.71
2018-01-23T23:39:44.249Z,6.65
2018-01-23T23:42:12.505Z,6.68
2018-01-23T23:44:40.767Z,6.61
2018-01-23T23:47:09.793Z,6.69
2018-01-23T23:49:38.042Z,6.62
2018-01-23T23:52:07.135Z,6.68
2018-01-23T23:54:35.389Z,6.83
2018-01-23T23:57:03.671Z,6.83
2018-01-23T23:59:31.919Z,6.89
